sensor_id;sensor_type;location;lat;lon;timestamp;P1;durP1;ratioP1;P2;durP2;ratioP2
45358;SDS011;31096;49.292;8.710;2023-03-24T00:02:05;6.77;;;3.60;;
45358;SDS011;31096;49.292;8.710;2023-03-24T00:06:56;6.72;;;4.10;;
45358;SDS011;31096;49.292;8.710;2023-03-24T00:11:47;6.37;;;3.40;;
45358;SDS011;31096;49.292;8.710;2023-03-24T00:16:38;6.10;;;3.90;;
45358;SDS011;31096;49.292;8.710;2023-03-24T00:21:34;5.60;;;3.13;;
45358;SDS011;31096;49.292;8.710;2023-03-24T00:26:27;5.20;;;3.08;;
45358;SDS011;31096;49.292;8.710;2023-03-24T00:31:19;6.35;;;3.50;;
45358;SDS011;31096;49.292;8.710;2023-03-24T00:36:10;6.83;;;3.40;;
45358;SDS011;31096;49.292;8.710;2023-03-24T00:41:01;7.10;;;3.45;;
45358;SDS011;31096;49.292;8.710;2023-03-24T00:46:04;6.03;;;3.50;;
45358;SDS011;31096;49.292;8.710;2023-03-24T00:51:00;6.85;;;3.90;;
45358;SDS011;31096;49.292;8.710;2023-03-24T00:55:52;6.50;;;4.13;;
45358;SDS011;31096;49.292;8.710;2023-03-24T01:00:46;6.23;;;3.90;;
45358;SDS011;31096;49.292;8.710;2023-03-24T01:05:43;6.13;;;3.22;;
45358;SDS011;31096;49.292;8.710;2023-03-24T01:10:37;4.93;;;2.80;;
45358;SDS011;31096;49.292;8.710;2023-03-24T01:15:39;5.18;;;3.15;;
45358;SDS011;31096;49.292;8.710;2023-03-24T01:20:30;5.10;;;3.53;;
45358;SDS011;31096;49.292;8.710;2023-03-24T01:25:24;9.30;;;4.10;;
45358;SDS011;31096;49.292;8.710;2023-03-24T01:30:17;6.10;;;3.30;;
45358;SDS011;31096;49.292;8.710;2023-03-24T01:35:11;8.60;;;3.60;;
45358;SDS011;31096;49.292;8.710;2023-03-24T01:40:02;4.70;;;2.90;;
45358;SDS011;31096;49.292;8.710;2023-03-24T01:44:59;6.45;;;3.40;;
45358;SDS011;31096;49.292;8.710;2023-03-24T01:50:11;7.63;;;3.87;;
45358;SDS011;31096;49.292;8.710;2023-03-24T01:55:14;5.93;;;3.73;;
45358;SDS011;31096;49.292;8.710;2023-03-24T02:00:10;7.05;;;3.85;;
45358;SDS011;31096;49.292;8.710;2023-03-24T02:05:06;6.13;;;3.92;;
45358;SDS011;31096;49.292;8.710;2023-03-24T02:10:00;5.30;;;3.03;;
45358;SDS011;31096;49.292;8.710;2023-03-24T02:14:56;5.70;;;3.63;;
45358;SDS011;31096;49.292;8.710;2023-03-24T02:46:23;6.33;;;3.30;;
45358;SDS011;31096;49.292;8.710;2023-03-24T02:51:49;7.00;;;3.88;;
45358;SDS011;31096;49.292;8.710;2023-03-24T03:01:56;5.93;;;3.37;;
45358;SDS011;31096;49.292;8.710;2023-03-24T03:06:53;6.53;;;3.95;;
45358;SDS011;31096;49.292;8.710;2023-03-24T03:11:48;6.30;;;3.80;;
45358;SDS011;31096;49.292;8.710;2023-03-24T03:16:46;6.33;;;3.60;;
45358;SDS011;31096;49.292;8.710;2023-03-24T03:21:43;6.43;;;3.55;;
45358;SDS011;31096;49.292;8.710;2023-03-24T03:26:35;5.13;;;3.28;;
45358;SDS011;31096;49.292;8.710;2023-03-24T03:31:48;6.03;;;3.50;;
45358;SDS011;31096;49.292;8.710;2023-03-24T03:36:56;5.53;;;3.55;;
45358;SDS011;31096;49.292;8.710;2023-03-24T03:41:54;5.40;;;3.35;;
45358;SDS011;31096;49.292;8.710;2023-03-24T03:46:45;5.37;;;3.10;;
45358;SDS011;31096;49.292;8.710;2023-03-24T03:51:36;5.55;;;3.22;;
45358;SDS011;31096;49.292;8.710;2023-03-24T03:56:28;6.70;;;3.30;;
45358;SDS011;31096;49.292;8.710;2023-03-24T04:01:22;6.40;;;3.53;;
45358;SDS011;31096;49.292;8.710;2023-03-24T04:21:33;6.27;;;3.07;;
45358;SDS011;31096;49.292;8.710;2023-03-24T04:31:54;5.22;;;2.90;;
45358;SDS011;31096;49.292;8.710;2023-03-24T04:37:08;5.30;;;3.70;;
45358;SDS011;31096;49.292;8.710;2023-03-24T04:42:06;5.70;;;3.28;;
45358;SDS011;31096;49.292;8.710;2023-03-24T04:47:01;4.75;;;2.85;;
45358;SDS011;31096;49.292;8.710;2023-03-24T04:51:54;5.87;;;2.73;;
45358;SDS011;31096;49.292;8.710;2023-03-24T04:56:45;7.00;;;3.07;;
45358;SDS011;31096;49.292;8.710;2023-03-24T05:01:41;5.43;;;3.25;;
45358;SDS011;31096;49.292;8.710;2023-03-24T05:06:39;5.40;;;3.22;;
45358;SDS011;31096;49.292;8.710;2023-03-24T05:11:29;5.93;;;3.17;;
45358;SDS011;31096;49.292;8.710;2023-03-24T05:16:20;5.73;;;3.13;;
45358;SDS011;31096;49.292;8.710;2023-03-24T05:21:11;6.70;;;3.60;;
45358;SDS011;31096;49.292;8.710;2023-03-24T05:26:02;5.97;;;3.70;;
45358;SDS011;31096;49.292;8.710;2023-03-24T05:30:54;6.95;;;4.45;;
45358;SDS011;31096;49.292;8.710;2023-03-24T05:35:44;6.60;;;4.27;;
45358;SDS011;31096;49.292;8.710;2023-03-24T05:40:35;7.35;;;3.83;;
45358;SDS011;31096;49.292;8.710;2023-03-24T05:45:26;8.80;;;4.50;;
45358;SDS011;31096;49.292;8.710;2023-03-24T05:50:18;7.40;;;4.32;;
45358;SDS011;31096;49.292;8.710;2023-03-24T05:55:09;8.50;;;4.23;;
45358;SDS011;31096;49.292;8.710;2023-03-24T05:59:59;6.10;;;4.20;;
45358;SDS011;31096;49.292;8.710;2023-03-24T06:04:51;6.63;;;3.80;;
45358;SDS011;31096;49.292;8.710;2023-03-24T06:09:42;6.03;;;4.07;;
45358;SDS011;31096;49.292;8.710;2023-03-24T06:14:35;6.63;;;4.30;;
45358;SDS011;31096;49.292;8.710;2023-03-24T06:19:27;5.93;;;3.40;;
45358;SDS011;31096;49.292;8.710;2023-03-24T06:24:19;5.93;;;3.92;;
45358;SDS011;31096;49.292;8.710;2023-03-24T06:29:10;6.17;;;3.87;;
45358;SDS011;31096;49.292;8.710;2023-03-24T06:34:02;6.93;;;3.85;;
45358;SDS011;31096;49.292;8.710;2023-03-24T06:38:54;5.70;;;3.95;;
45358;SDS011;31096;49.292;8.710;2023-03-24T06:43:45;6.13;;;4.43;;
45358;SDS011;31096;49.292;8.710;2023-03-24T06:48:35;5.87;;;4.30;;
45358;SDS011;31096;49.292;8.710;2023-03-24T06:53:27;6.57;;;3.97;;
45358;SDS011;31096;49.292;8.710;2023-03-24T06:58:18;6.80;;;4.00;;
45358;SDS011;31096;49.292;8.710;2023-03-24T07:03:08;6.23;;;3.93;;
45358;SDS011;31096;49.292;8.710;2023-03-24T07:07:59;5.25;;;3.10;;
45358;SDS011;31096;49.292;8.710;2023-03-24T07:12:50;6.80;;;3.83;;
45358;SDS011;31096;49.292;8.710;2023-03-24T07:17:40;5.33;;;3.67;;
45358;SDS011;31096;49.292;8.710;2023-03-24T07:22:31;5.80;;;3.65;;
45358;SDS011;31096;49.292;8.710;2023-03-24T07:27:24;6.33;;;3.63;;
45358;SDS011;31096;49.292;8.710;2023-03-24T07:32:15;5.43;;;2.97;;
45358;SDS011;31096;49.292;8.710;2023-03-24T07:37:06;7.53;;;3.30;;
45358;SDS011;31096;49.292;8.710;2023-03-24T07:41:57;6.30;;;3.63;;
45358;SDS011;31096;49.292;8.710;2023-03-24T07:46:48;6.33;;;3.40;;
45358;SDS011;31096;49.292;8.710;2023-03-24T07:51:38;4.50;;;3.30;;
45358;SDS011;31096;49.292;8.710;2023-03-24T07:56:29;6.93;;;3.40;;
45358;SDS011;31096;49.292;8.710;2023-03-24T08:01:20;8.02;;;3.10;;
45358;SDS011;31096;49.292;8.710;2023-03-24T08:06:11;4.67;;;2.90;;
45358;SDS011;31096;49.292;8.710;2023-03-24T08:11:02;5.07;;;3.20;;
45358;SDS011;31096;49.292;8.710;2023-03-24T08:15:53;5.90;;;3.60;;
45358;SDS011;31096;49.292;8.710;2023-03-24T08:20:44;5.40;;;3.75;;
45358;SDS011;31096;49.292;8.710;2023-03-24T08:25:35;4.77;;;3.13;;
45358;SDS011;31096;49.292;8.710;2023-03-24T08:30:26;5.73;;;3.57;;
45358;SDS011;31096;49.292;8.710;2023-03-24T08:35:18;6.40;;;3.70;;
45358;SDS011;31096;49.292;8.710;2023-03-24T08:40:13;4.60;;;3.10;;
45358;SDS011;31096;49.292;8.710;2023-03-24T08:45:12;5.25;;;3.33;;
45358;SDS011;31096;49.292;8.710;2023-03-24T08:50:03;4.80;;;2.80;;
45358;SDS011;31096;49.292;8.710;2023-03-24T08:54:56;5.15;;;3.13;;
45358;SDS011;31096;49.292;8.710;2023-03-24T08:59:47;5.57;;;3.27;;
45358;SDS011;31096;49.292;8.710;2023-03-24T09:04:38;4.97;;;2.90;;
45358;SDS011;31096;49.292;8.710;2023-03-24T09:09:29;5.50;;;2.93;;
45358;SDS011;31096;49.292;8.710;2023-03-24T09:14:20;4.78;;;2.88;;
45358;SDS011;31096;49.292;8.710;2023-03-24T09:19:13;4.67;;;2.67;;
45358;SDS011;31096;49.292;8.710;2023-03-24T09:24:05;4.90;;;2.63;;
45358;SDS011;31096;49.292;8.710;2023-03-24T09:28:56;4.70;;;2.80;;
45358;SDS011;31096;49.292;8.710;2023-03-24T09:33:47;4.77;;;2.80;;
45358;SDS011;31096;49.292;8.710;2023-03-24T09:38:37;5.60;;;2.93;;
45358;SDS011;31096;49.292;8.710;2023-03-24T09:43:45;5.00;;;2.90;;
45358;SDS011;31096;49.292;8.710;2023-03-24T09:48:50;4.43;;;2.40;;
45358;SDS011;31096;49.292;8.710;2023-03-24T09:59:01;4.68;;;2.67;;
45358;SDS011;31096;49.292;8.710;2023-03-24T10:04:14;4.50;;;2.90;;
45358;SDS011;31096;49.292;8.710;2023-03-24T10:19:34;4.93;;;2.70;;
45358;SDS011;31096;49.292;8.710;2023-03-24T10:24:56;6.10;;;2.63;;
45358;SDS011;31096;49.292;8.710;2023-03-24T10:29:55;5.53;;;2.80;;
45358;SDS011;31096;49.292;8.710;2023-03-24T10:35:05;5.40;;;3.22;;
45358;SDS011;31096;49.292;8.710;2023-03-24T10:39:59;4.87;;;2.60;;
45358;SDS011;31096;49.292;8.710;2023-03-24T10:44:50;5.00;;;3.05;;
45358;SDS011;31096;49.292;8.710;2023-03-24T10:49:50;7.45;;;3.05;;
45358;SDS011;31096;49.292;8.710;2023-03-24T10:54:52;4.47;;;2.57;;
45358;SDS011;31096;49.292;8.710;2023-03-24T11:04:57;5.38;;;2.95;;
45358;SDS011;31096;49.292;8.710;2023-03-24T11:10:06;5.03;;;2.90;;
45358;SDS011;31096;49.292;8.710;2023-03-24T11:15:16;5.17;;;2.87;;
45358;SDS011;31096;49.292;8.710;2023-03-24T11:20:23;5.88;;;3.05;;
45358;SDS011;31096;49.292;8.710;2023-03-24T11:25:28;6.28;;;3.72;;
45358;SDS011;31096;49.292;8.710;2023-03-24T11:30:22;5.33;;;2.83;;
45358;SDS011;31096;49.292;8.710;2023-03-24T11:35:14;4.82;;;2.92;;
45358;SDS011;31096;49.292;8.710;2023-03-24T11:45:18;5.72;;;2.92;;
45358;SDS011;31096;49.292;8.710;2023-03-24T11:50:30;4.15;;;2.20;;
45358;SDS011;31096;49.292;8.710;2023-03-24T11:55:28;4.00;;;2.13;;
45358;SDS011;31096;49.292;8.710;2023-03-24T12:00:31;4.43;;;2.08;;
45358;SDS011;31096;49.292;8.710;2023-03-24T12:05:30;4.00;;;2.17;;
45358;SDS011;31096;49.292;8.710;2023-03-24T12:10:39;4.00;;;2.10;;
45358;SDS011;31096;49.292;8.710;2023-03-24T12:15:56;3.50;;;1.80;;
45358;SDS011;31096;49.292;8.710;2023-03-24T12:20:52;5.85;;;2.33;;
45358;SDS011;31096;49.292;8.710;2023-03-24T12:26:33;4.25;;;2.20;;
45358;SDS011;31096;49.292;8.710;2023-03-24T12:52:41;4.88;;;2.00;;
45358;SDS011;31096;49.292;8.710;2023-03-24T12:57:47;3.88;;;1.80;;
45358;SDS011;31096;49.292;8.710;2023-03-24T13:07:40;4.33;;;2.20;;
45358;SDS011;31096;49.292;8.710;2023-03-24T13:12:44;4.47;;;2.00;;
45358;SDS011;31096;49.292;8.710;2023-03-24T13:17:47;4.75;;;2.10;;
45358;SDS011;31096;49.292;8.710;2023-03-24T13:22:58;4.03;;;1.60;;
45358;SDS011;31096;49.292;8.710;2023-03-24T13:28:21;4.97;;;2.00;;
45358;SDS011;31096;49.292;8.710;2023-03-24T13:33:23;5.07;;;2.10;;
45358;SDS011;31096;49.292;8.710;2023-03-24T13:38:26;4.50;;;1.90;;
45358;SDS011;31096;49.292;8.710;2023-03-24T13:43:28;5.07;;;1.90;;
45358;SDS011;31096;49.292;8.710;2023-03-24T13:53:37;3.60;;;1.63;;
45358;SDS011;31096;49.292;8.710;2023-03-24T13:59:17;4.73;;;2.00;;
45358;SDS011;31096;49.292;8.710;2023-03-24T14:09:34;3.58;;;1.98;;
45358;SDS011;31096;49.292;8.710;2023-03-24T14:20:09;4.55;;;1.90;;
45358;SDS011;31096;49.292;8.710;2023-03-24T14:25:17;3.85;;;1.88;;
45358;SDS011;31096;49.292;8.710;2023-03-24T14:30:22;4.27;;;1.90;;
45358;SDS011;31096;49.292;8.710;2023-03-24T14:35:21;3.95;;;2.03;;
45358;SDS011;31096;49.292;8.710;2023-03-24T14:45:37;4.93;;;2.13;;
45358;SDS011;31096;49.292;8.710;2023-03-24T14:50:30;6.23;;;2.30;;
45358;SDS011;31096;49.292;8.710;2023-03-24T14:55:21;5.90;;;1.95;;
45358;SDS011;31096;49.292;8.710;2023-03-24T15:00:32;4.23;;;1.90;;
45358;SDS011;31096;49.292;8.710;2023-03-24T15:05:33;4.75;;;1.98;;
45358;SDS011;31096;49.292;8.710;2023-03-24T15:10:26;5.97;;;1.80;;
45358;SDS011;31096;49.292;8.710;2023-03-24T15:15:38;3.80;;;1.90;;
45358;SDS011;31096;49.292;8.710;2023-03-24T15:20:36;4.43;;;2.00;;
45358;SDS011;31096;49.292;8.710;2023-03-24T15:25:27;5.97;;;2.33;;
45358;SDS011;31096;49.292;8.710;2023-03-24T15:30:18;4.27;;;2.17;;
45358;SDS011;31096;49.292;8.710;2023-03-24T15:35:11;4.47;;;1.73;;
45358;SDS011;31096;49.292;8.710;2023-03-24T15:45:42;5.43;;;2.00;;
45358;SDS011;31096;49.292;8.710;2023-03-24T15:50:37;4.47;;;2.13;;
45358;SDS011;31096;49.292;8.710;2023-03-24T15:55:31;4.47;;;2.00;;
45358;SDS011;31096;49.292;8.710;2023-03-24T16:00:26;4.85;;;2.38;;
45358;SDS011;31096;49.292;8.710;2023-03-24T16:10:26;4.57;;;2.30;;
45358;SDS011;31096;49.292;8.710;2023-03-24T16:15:21;4.43;;;2.17;;
45358;SDS011;31096;49.292;8.710;2023-03-24T16:20:19;5.63;;;2.07;;
45358;SDS011;31096;49.292;8.710;2023-03-24T16:25:10;4.50;;;2.00;;
45358;SDS011;31096;49.292;8.710;2023-03-24T16:30:08;3.90;;;2.10;;
45358;SDS011;31096;49.292;8.710;2023-03-24T16:35:11;3.93;;;1.67;;
45358;SDS011;31096;49.292;8.710;2023-03-24T16:40:02;3.92;;;2.00;;
45358;SDS011;31096;49.292;8.710;2023-03-24T16:45:01;3.67;;;1.67;;
45358;SDS011;31096;49.292;8.710;2023-03-24T16:49:52;4.23;;;1.83;;
45358;SDS011;31096;49.292;8.710;2023-03-24T16:54:43;3.88;;;1.67;;
45358;SDS011;31096;49.292;8.710;2023-03-24T16:59:34;4.43;;;1.90;;
45358;SDS011;31096;49.292;8.710;2023-03-24T17:04:25;3.83;;;1.93;;
45358;SDS011;31096;49.292;8.710;2023-03-24T17:09:16;3.25;;;1.83;;
45358;SDS011;31096;49.292;8.710;2023-03-24T17:14:07;3.85;;;1.90;;
45358;SDS011;31096;49.292;8.710;2023-03-24T17:19:01;4.67;;;1.90;;
45358;SDS011;31096;49.292;8.710;2023-03-24T17:23:53;3.92;;;2.15;;
45358;SDS011;31096;49.292;8.710;2023-03-24T17:28:44;3.70;;;1.80;;
45358;SDS011;31096;49.292;8.710;2023-03-24T17:33:35;4.07;;;2.07;;
45358;SDS011;31096;49.292;8.710;2023-03-24T17:38:25;4.40;;;2.20;;
45358;SDS011;31096;49.292;8.710;2023-03-24T17:43:16;4.10;;;2.05;;
45358;SDS011;31096;49.292;8.710;2023-03-24T17:48:07;4.37;;;2.07;;
45358;SDS011;31096;49.292;8.710;2023-03-24T17:52:57;4.83;;;1.87;;
45358;SDS011;31096;49.292;8.710;2023-03-24T17:57:49;4.05;;;2.08;;
45358;SDS011;31096;49.292;8.710;2023-03-24T18:02:41;4.00;;;2.13;;
45358;SDS011;31096;49.292;8.710;2023-03-24T18:07:32;4.28;;;2.00;;
45358;SDS011;31096;49.292;8.710;2023-03-24T18:12:24;4.88;;;2.20;;
45358;SDS011;31096;49.292;8.710;2023-03-24T18:17:15;4.03;;;2.23;;
45358;SDS011;31096;49.292;8.710;2023-03-24T18:22:06;3.80;;;1.73;;
45358;SDS011;31096;49.292;8.710;2023-03-24T18:26:56;4.53;;;2.30;;
45358;SDS011;31096;49.292;8.710;2023-03-24T18:31:47;4.75;;;2.30;;
45358;SDS011;31096;49.292;8.710;2023-03-24T18:36:39;5.37;;;2.40;;
45358;SDS011;31096;49.292;8.710;2023-03-24T18:41:30;4.35;;;2.13;;
45358;SDS011;31096;49.292;8.710;2023-03-24T18:46:25;3.78;;;2.10;;
45358;SDS011;31096;49.292;8.710;2023-03-24T18:51:16;4.23;;;1.67;;
45358;SDS011;31096;49.292;8.710;2023-03-24T18:56:11;3.70;;;2.10;;
45358;SDS011;31096;49.292;8.710;2023-03-24T19:01:05;4.93;;;2.07;;
45358;SDS011;31096;49.292;8.710;2023-03-24T19:06:00;4.10;;;2.10;;
45358;SDS011;31096;49.292;8.710;2023-03-24T19:10:55;3.60;;;2.00;;
45358;SDS011;31096;49.292;8.710;2023-03-24T19:15:46;5.27;;;1.80;;
45358;SDS011;31096;49.292;8.710;2023-03-24T19:20:38;3.97;;;2.10;;
45358;SDS011;31096;49.292;8.710;2023-03-24T19:25:31;4.17;;;2.10;;
45358;SDS011;31096;49.292;8.710;2023-03-24T19:30:22;4.13;;;2.00;;
45358;SDS011;31096;49.292;8.710;2023-03-24T19:35:13;4.30;;;2.10;;
45358;SDS011;31096;49.292;8.710;2023-03-24T19:40:05;4.27;;;2.13;;
45358;SDS011;31096;49.292;8.710;2023-03-24T19:49:59;4.53;;;2.40;;
45358;SDS011;31096;49.292;8.710;2023-03-24T19:54:50;4.22;;;1.80;;
45358;SDS011;31096;49.292;8.710;2023-03-24T19:59:41;5.30;;;1.70;;
45358;SDS011;31096;49.292;8.710;2023-03-24T20:04:32;5.40;;;2.10;;
45358;SDS011;31096;49.292;8.710;2023-03-24T20:09:22;4.07;;;2.30;;
45358;SDS011;31096;49.292;8.710;2023-03-24T20:14:13;5.57;;;2.27;;
45358;SDS011;31096;49.292;8.710;2023-03-24T20:19:05;5.80;;;2.47;;
45358;SDS011;31096;49.292;8.710;2023-03-24T20:23:56;4.03;;;2.30;;
45358;SDS011;31096;49.292;8.710;2023-03-24T20:28:47;3.90;;;2.23;;
45358;SDS011;31096;49.292;8.710;2023-03-24T20:33:38;4.93;;;2.30;;
45358;SDS011;31096;49.292;8.710;2023-03-24T20:38:29;4.60;;;2.50;;
45358;SDS011;31096;49.292;8.710;2023-03-24T20:43:19;5.20;;;2.60;;
45358;SDS011;31096;49.292;8.710;2023-03-24T20:48:10;4.80;;;2.70;;
45358;SDS011;31096;49.292;8.710;2023-03-24T20:53:01;4.77;;;1.97;;
45358;SDS011;31096;49.292;8.710;2023-03-24T20:57:51;7.20;;;2.10;;
45358;SDS011;31096;49.292;8.710;2023-03-24T21:02:42;3.90;;;1.90;;
45358;SDS011;31096;49.292;8.710;2023-03-24T21:07:33;5.20;;;1.80;;
45358;SDS011;31096;49.292;8.710;2023-03-24T21:12:27;5.50;;;1.98;;
45358;SDS011;31096;49.292;8.710;2023-03-24T21:17:17;3.67;;;1.83;;
45358;SDS011;31096;49.292;8.710;2023-03-24T21:22:09;5.05;;;1.98;;
45358;SDS011;31096;49.292;8.710;2023-03-24T21:27:04;5.72;;;2.33;;
45358;SDS011;31096;49.292;8.710;2023-03-24T21:31:55;4.60;;;1.93;;
45358;SDS011;31096;49.292;8.710;2023-03-24T21:36:46;4.80;;;2.47;;
45358;SDS011;31096;49.292;8.710;2023-03-24T21:41:38;4.13;;;2.30;;
45358;SDS011;31096;49.292;8.710;2023-03-24T21:46:31;4.93;;;2.38;;
45358;SDS011;31096;49.292;8.710;2023-03-24T21:51:23;6.45;;;2.38;;
45358;SDS011;31096;49.292;8.710;2023-03-24T21:56:19;4.70;;;1.93;;
45358;SDS011;31096;49.292;8.710;2023-03-24T22:01:10;4.72;;;2.75;;
45358;SDS011;31096;49.292;8.710;2023-03-24T22:06:02;5.55;;;2.60;;
45358;SDS011;31096;49.292;8.710;2023-03-24T22:11:00;4.90;;;2.30;;
45358;SDS011;31096;49.292;8.710;2023-03-24T22:15:53;5.13;;;2.30;;
45358;SDS011;31096;49.292;8.710;2023-03-24T22:20:56;4.93;;;2.20;;
45358;SDS011;31096;49.292;8.710;2023-03-24T22:25:53;4.40;;;2.60;;
45358;SDS011;31096;49.292;8.710;2023-03-24T22:30:43;6.15;;;2.50;;
45358;SDS011;31096;49.292;8.710;2023-03-24T22:35:36;4.30;;;2.37;;
45358;SDS011;31096;49.292;8.710;2023-03-24T22:40:28;5.30;;;2.37;;
45358;SDS011;31096;49.292;8.710;2023-03-24T22:45:18;6.80;;;2.70;;
45358;SDS011;31096;49.292;8.710;2023-03-24T22:50:10;5.43;;;2.13;;
45358;SDS011;31096;49.292;8.710;2023-03-24T22:55:01;5.43;;;2.40;;
45358;SDS011;31096;49.292;8.710;2023-03-24T22:59:51;5.40;;;2.37;;
45358;SDS011;31096;49.292;8.710;2023-03-24T23:04:42;4.28;;;2.50;;
45358;SDS011;31096;49.292;8.710;2023-03-24T23:09:34;4.73;;;2.13;;
45358;SDS011;31096;49.292;8.710;2023-03-24T23:14:25;4.53;;;2.50;;
45358;SDS011;31096;49.292;8.710;2023-03-24T23:19:16;5.00;;;2.35;;
45358;SDS011;31096;49.292;8.710;2023-03-24T23:24:07;3.90;;;2.00;;
45358;SDS011;31096;49.292;8.710;2023-03-24T23:28:58;5.77;;;2.33;;
45358;SDS011;31096;49.292;8.710;2023-03-24T23:33:49;4.95;;;2.30;;
45358;SDS011;31096;49.292;8.710;2023-03-24T23:38:44;4.13;;;2.10;;
45358;SDS011;31096;49.292;8.710;2023-03-24T23:43:36;6.32;;;2.03;;
45358;SDS011;31096;49.292;8.710;2023-03-24T23:48:29;4.70;;;2.30;;
45358;SDS011;31096;49.292;8.710;2023-03-24T23:53:20;4.22;;;2.10;;
45358;SDS011;31096;49.292;8.710;2023-03-24T23:58:11;5.80;;;1.87;;
